Time;durP1;ratioP1;P1;durP2;ratioP2;P2;SDS_P1;SDS_P2;PMS_P1;PMS_P2;Temp;Humidity;BMP_temperature;BMP_pressure;BME280_temperature;BME280_humidity;BME280_pressure;Samples;Min_cycle;Max_cycle;Signal;HPM_P1;HPM_P2
2022/06/19 00:00:10;;;;;;;8.88;4.18;;;;;;;21.07;55.98;99116.47;8482046;27;20088;-77
2022/06/19 00:04:32;;;;;;;10.70;3.63;;;;;;;21.01;56.14;99108.94;8506409;27;20047;-77
2022/06/19 00:08:33;;;;;;;7.50;3.70;;;;;;;20.97;56.14;99114.41;8490020;27;20424;-77
2022/06/19 00:12:34;;;;;;;9.57;4.00;;;;;;;20.91;56.52;99093.16;8493630;27;20637;-76
2022/06/19 00:16:36;;;;;;;10.07;3.95;;;;;;;20.81;56.90;99093.84;8454529;27;20039;-77
2022/06/19 00:20:37;;;;;;;10.57;3.75;;;;;;;20.71;57.19;99097.28;8513896;27;20050;-77
2022/06/19 00:24:39;;;;;;;8.55;3.88;;;;;;;20.67;57.75;99093.72;8513133;27;20042;-77
2022/06/19 00:28:46;;;;;;;7.85;3.67;;;;;;;20.64;57.52;99087.78;8511010;27;20071;-76
2022/06/19 00:32:47;;;;;;;8.27;3.92;;;;;;;20.59;57.72;99092.81;8517096;27;20612;-76
2022/06/19 00:36:49;;;;;;;11.65;4.00;;;;;;;20.53;57.78;99095.13;8505532;27;20140;-77
2022/06/19 00:40:55;;;;;;;5.88;3.88;;;;;;;20.44;58.40;99080.13;8504424;27;20036;-76
2022/06/19 00:44:56;;;;;;;8.23;3.58;;;;;;;20.39;58.50;99089.47;8505348;27;20042;-76
2022/06/19 00:48:57;;;;;;;6.43;3.75;;;;;;;20.33;58.74;99084.69;8468897;27;20385;-76
2022/06/19 00:52:59;;;;;;;10.95;4.25;;;;;;;20.27;59.00;99086.16;8503043;27;20693;-77
2022/06/19 00:57:00;;;;;;;9.02;3.60;;;;;;;20.25;59.08;99094.72;8496986;27;20511;-77
2022/06/19 01:01:08;;;;;;;6.28;3.78;;;;;;;20.12;59.85;99090.66;8450245;27;20063;-77
2022/06/19 01:05:14;;;;;;;9.97;4.33;;;;;;;20.09;60.13;99088.69;8482664;27;20447;-76
2022/06/19 01:09:16;;;;;;;8.45;3.83;;;;;;;20.01;60.77;99081.50;8503231;27;20097;-77
2022/06/19 01:13:20;;;;;;;12.00;3.97;;;;;;;19.88;61.22;99085.66;8503992;27;20054;-77
2022/06/19 01:17:21;;;;;;;13.18;3.75;;;;;;;19.85;61.00;99075.41;8484683;27;20051;-77
2022/06/19 01:21:38;;;;;;;10.65;3.90;;;;;;;19.86;60.84;99077.00;8509634;27;20065;-76
2022/06/19 01:25:40;;;;;;;8.30;3.67;;;;;;;19.85;60.83;99080.91;8497568;27;20062;-76
2022/06/19 01:29:41;;;;;;;7.63;3.80;;;;;;;19.86;60.69;99077.00;8490236;27;20076;-77
2022/06/19 01:33:56;;;;;;;10.65;3.80;;;;;;;19.74;61.46;99076.06;8491997;27;20488;-76
2022/06/19 01:37:58;;;;;;;10.48;3.80;;;;;;;19.75;61.74;99077.66;8486575;27;20043;-76
2022/06/19 01:42:01;;;;;;;8.20;3.75;;;;;;;19.74;61.79;99070.59;8413916;28;20486;-76
2022/06/19 01:46:04;;;;;;;8.52;3.55;;;;;;;19.67;62.13;99065.00;8407834;28;20110;-76
2022/06/19 01:50:09;;;;;;;12.07;3.75;;;;;;;19.65;62.68;99072.81;8396687;28;20411;-77
2022/06/19 01:54:20;;;;;;;9.68;3.78;;;;;;;19.67;62.46;99081.44;8402407;28;20045;-77
2022/06/19 01:58:23;;;;;;;6.03;3.70;;;;;;;19.65;62.22;99089.25;8377288;28;20055;-76
2022/06/19 02:02:25;;;;;;;9.20;3.85;;;;;;;19.60;62.41;99075.88;8393781;28;20101;-76
2022/06/19 02:06:32;;;;;;;11.40;3.83;;;;;;;19.56;62.91;99075.03;8414779;28;20052;-77
2022/06/19 02:10:36;;;;;;;9.18;4.28;;;;;;;19.49;63.14;99069.44;8401824;27;20046;-76
2022/06/19 02:14:37;;;;;;;11.13;4.15;;;;;;;19.40;63.47;99063.41;8477997;27;20066;-76
2022/06/19 02:18:41;;;;;;;7.45;3.70;;;;;;;19.39;63.60;99064.56;8487445;27;20043;-77
2022/06/19 02:22:42;;;;;;;6.82;3.80;;;;;;;19.37;63.91;99055.91;8461316;27;20142;-76
2022/06/19 02:26:44;;;;;;;10.95;4.20;;;;;;;19.32;64.30;99053.50;8494378;27;20039;-76
2022/06/19 02:30:47;;;;;;;8.45;4.35;;;;;;;19.26;64.85;99046.75;8507776;27;20058;-76
2022/06/19 02:34:50;;;;;;;10.77;4.20;;;;;;;19.21;65.22;99044.31;8488174;27;20035;-77
2022/06/19 02:38:51;;;;;;;9.02;3.65;;;;;;;19.19;66.21;99038.44;8503847;27;20039;-76
2022/06/19 02:42:52;;;;;;;10.55;4.05;;;;;;;19.18;66.05;99036.84;8497511;27;20047;-77
2022/06/19 02:46:53;;;;;;;7.05;4.07;;;;;;;19.17;66.53;99035.25;8514648;27;20175;-77
2022/06/19 02:50:58;;;;;;;8.10;3.90;;;;;;;19.16;66.97;99036.41;8441399;27;20049;-77
2022/06/19 02:54:59;;;;;;;11.10;3.95;;;;;;;19.07;67.62;99027.69;8503497;27;20039;-77
2022/06/19 02:59:00;;;;;;;8.27;3.97;;;;;;;19.03;68.04;99024.88;8498360;27;20034;-76
2022/06/19 03:03:11;;;;;;;6.75;4.00;;;;;;;19.03;68.65;99035.03;8484077;27;20142;-77
2022/06/19 03:07:12;;;;;;;6.57;4.30;;;;;;;19.05;68.39;99032.72;8484177;27;20075;-77
2022/06/19 03:11:13;;;;;;;11.82;4.35;;;;;;;19.02;69.03;99022.50;8507226;27;20042;-77
2022/06/19 03:15:15;;;;;;;9.65;4.55;;;;;;;18.92;70.00;99012.97;8509423;27;20161;-77
2022/06/19 03:19:16;;;;;;;9.73;4.63;;;;;;;18.82;70.59;99014.34;8497722;27;20058;-76
2022/06/19 03:23:17;;;;;;;10.98;4.43;;;;;;;18.80;70.64;99005.75;8401721;28;20048;-77
2022/06/19 03:27:18;;;;;;;6.85;4.60;;;;;;;18.78;70.83;98997.09;8412407;28;20122;-76
2022/06/19 03:31:21;;;;;;;8.05;4.40;;;;;;;18.85;70.40;98990.97;8417238;28;20097;-76
2022/06/19 03:35:22;;;;;;;6.78;4.50;;;;;;;18.86;70.47;98982.41;8427460;28;20051;-77
2022/06/19 03:39:24;;;;;;;6.72;4.25;;;;;;;18.86;70.77;98982.41;8422906;28;20525;-76
2022/06/19 03:43:25;;;;;;;8.02;4.68;;;;;;;18.88;70.76;98985.53;8423644;28;20060;-76
2022/06/19 03:47:27;;;;;;;7.25;4.72;;;;;;;18.84;71.19;98990.16;8417195;28;20060;-76
2022/06/19 03:51:28;;;;;;;8.43;4.25;;;;;;;18.92;70.82;98991.09;8423826;28;20051;-76
2022/06/19 03:55:29;;;;;;;7.47;4.55;;;;;;;18.95;70.66;98990.34;8490689;27;20092;-75
2022/06/19 03:59:30;;;;;;;7.45;4.78;;;;;;;18.97;70.84;98972.41;8481844;27;20047;-77
2022/06/19 04:03:33;;;;;;;9.68;4.13;;;;;;;19.03;70.59;98970.16;8480703;27;20048;-78
2022/06/19 04:07:44;;;;;;;8.02;4.47;;;;;;;19.11;70.53;98960.09;8438121;27;20112;-76
2022/06/19 04:11:48;;;;;;;8.07;4.55;;;;;;;19.12;70.74;98956.19;8438677;27;20042;-77
2022/06/19 04:15:48;;;;;;;7.15;4.43;;;;;;;19.15;70.67;98950.75;8483380;27;20118;-75
2022/06/19 04:19:49;;;;;;;9.45;4.40;;;;;;;19.22;70.46;98955.56;8479422;27;20043;-75
2022/06/19 04:23:56;;;;;;;8.43;4.75;;;;;;;19.25;70.42;98952.06;8478098;27;20045;-75
2022/06/19 04:27:57;;;;;;;7.93;4.53;;;;;;;19.27;70.56;98949.75;8496502;27;20519;-75
2022/06/19 04:31:58;;;;;;;6.40;4.30;;;;;;;19.41;69.95;98936.25;8517898;27;20053;-75
2022/06/19 04:35:59;;;;;;;7.13;4.38;;;;;;;19.47;70.06;98945.75;8507034;27;20050;-74
2022/06/19 04:40:00;;;;;;;7.40;4.20;;;;;;;19.52;70.06;98941.91;8472320;27;20445;-75
2022/06/19 04:44:02;;;;;;;12.32;4.47;;;;;;;19.53;70.37;98943.50;8482255;27;20038;-76
2022/06/19 04:48:04;;;;;;;8.40;4.57;;;;;;;19.55;70.37;98952.94;8521266;27;20485;-75
2022/06/19 04:52:06;;;;;;;10.70;4.20;;;;;;;19.61;70.54;98947.91;8502896;27;20094;-74
2022/06/19 04:56:08;;;;;;;8.73;4.40;;;;;;;19.70;70.25;98949.19;8504727;27;20046;-75
2022/06/19 05:00:13;;;;;;;9.95;4.40;;;;;;;19.75;70.30;98951.59;8506398;27;20046;-75
2022/06/19 05:04:15;;;;;;;13.75;4.38;;;;;;;19.76;70.77;98942.25;8525366;27;20087;-76
2022/06/19 05:08:16;;;;;;;6.15;4.03;;;;;;;19.84;70.76;98948.56;8508061;27;20051;-75
2022/06/19 05:12:17;;;;;;;8.35;4.00;;;;;;;19.96;70.87;98955.75;8507881;27;20142;-75
2022/06/19 05:16:23;;;;;;;6.57;4.35;;;;;;;20.03;70.86;98955.84;8497249;27;20557;-75
2022/06/19 05:20:24;;;;;;;7.60;4.10;;;;;;;20.15;70.42;98947.34;8487082;27;20043;-75
2022/06/19 05:24:26;;;;;;;5.68;3.90;;;;;;;20.24;70.63;98939.63;8510548;27;20480;-75
2022/06/19 05:28:29;;;;;;;6.75;3.92;;;;;;;20.34;70.26;98943.66;8516912;27;20678;-75
2022/06/19 05:32:30;;;;;;;10.07;4.25;;;;;;;20.42;70.07;98940.59;8483008;27;20039;-74
2022/06/19 05:36:31;;;;;;;8.43;4.03;;;;;;;20.50;69.90;98936.78;8516539;27;20195;-75
2022/06/19 05:40:32;;;;;;;7.45;4.18;;;;;;;20.62;69.64;98933.72;8452904;27;20042;-75
2022/06/19 05:44:33;;;;;;;5.25;3.60;;;;;;;20.76;69.66;98921.28;8526456;27;20177;-75
2022/06/19 05:48:36;;;;;;;6.18;3.80;;;;;;;20.87;69.35;98927.66;8526912;27;20093;-75
2022/06/19 05:52:37;;;;;;;7.55;3.97;;;;;;;21.02;69.21;98923.84;8522877;27;20045;-75
2022/06/19 05:56:38;;;;;;;5.60;3.70;;;;;;;21.13;68.84;98924.69;8520363;27;20589;-74
2022/06/19 06:00:39;;;;;;;16.17;3.90;;;;;;;21.24;68.29;98914.59;8519821;27;20050;-76
2022/06/19 06:04:40;;;;;;;8.07;3.67;;;;;;;21.38;68.01;98914.66;8506962;27;20085;-75
2022/06/19 06:08:44;;;;;;;4.78;3.17;;;;;;;21.51;67.67;98917.06;8462734;27;20129;-77
2022/06/19 06:12:45;;;;;;;7.43;3.42;;;;;;;21.64;67.08;98910.06;8520190;27;20457;-76
2022/06/19 06:16:46;;;;;;;5.30;3.78;;;;;;;21.76;66.74;98926.22;8489002;27;20054;-76
2022/06/19 06:20:58;;;;;;;10.35;3.60;;;;;;;21.94;66.95;98924.34;8501609;27;20053;-75
2022/06/19 06:24:58;;;;;;;5.82;3.15;;;;;;;22.10;65.84;98932.25;8511057;27;20141;-80
2022/06/19 06:29:00;;;;;;;6.68;3.25;;;;;;;22.24;65.55;98922.06;8520633;27;20055;-78
2022/06/19 06:33:03;;;;;;;8.75;3.03;;;;;;;22.39;64.89;98922.84;8511248;27;20046;-79
2022/06/19 06:37:04;;;;;;;11.85;3.70;;;;;;;22.60;64.59;98922.06;8513220;27;20053;-81
2022/06/19 06:41:09;;;;;;;5.63;2.90;;;;;;;22.77;63.98;98926.81;8501325;27;20511;-77
2022/06/19 06:45:12;;;;;;;4.63;2.75;;;;;;;22.92;62.82;98922.88;8476312;27;20068;-76
2022/06/19 06:49:13;;;;;;;7.43;3.10;;;;;;;23.06;62.65;98922.84;8520353;27;20054;-76
2022/06/19 06:53:17;;;;;;;6.85;2.70;;;;;;;23.29;62.35;98929.88;8502337;27;20046;-74
2022/06/19 06:57:18;;;;;;;4.80;2.83;;;;;;;23.45;62.01;98910.94;8497658;27;20031;-76
2022/06/19 07:01:22;;;;;;;6.85;2.78;;;;;;;23.64;60.80;98913.25;8506265;27;20054;-79
2022/06/19 07:05:23;;;;;;;10.10;2.80;;;;;;;23.78;61.20;98912.44;8478333;27;20069;-80
2022/06/19 07:09:25;;;;;;;5.60;2.70;;;;;;;23.94;60.84;98905.25;8514637;27;20152;-78
2022/06/19 07:13:26;;;;;;;7.57;2.50;;;;;;;24.13;59.70;98894.88;8501837;27;20038;-77
2022/06/19 07:17:28;;;;;;;8.75;2.60;;;;;;;24.27;59.97;98889.31;8464922;27;20059;-78
2022/06/19 07:21:29;;;;;;;5.93;2.30;;;;;;;24.44;59.15;98885.63;8513358;27;20038;-77
2022/06/19 07:25:31;;;;;;;8.13;2.33;;;;;;;24.64;57.72;98874.81;8497068;27;20035;-78
2022/06/19 07:29:32;;;;;;;7.28;3.40;;;;;;;24.81;57.30;98858.06;8508477;27;20424;-77
2022/06/19 07:33:36;;;;;;;6.50;2.50;;;;;;;25.01;55.78;98871.34;8482310;27;20046;-77
2022/06/19 07:37:37;;;;;;;4.28;2.35;;;;;;;25.18;54.95;98873.09;8494615;27;20072;-74
2022/06/19 07:41:38;;;;;;;4.95;2.47;;;;;;;25.38;52.46;98870.53;8513072;27;20087;-75
2022/06/19 07:45:39;;;;;;;6.60;2.42;;;;;;;25.55;52.09;98873.09;8501535;27;20145;-74
2022/06/19 07:54:00;;;;;;;6.72;2.40;;;;;;;25.93;49.42;98881.28;8464886;27;20099;-75
2022/06/19 07:58:02;;;;;;;8.65;2.42;;;;;;;26.05;49.23;98877.94;8500369;27;20035;-74
2022/06/19 08:02:03;;;;;;;6.10;2.17;;;;;;;26.23;50.19;98881.25;8489989;27;20043;-75
2022/06/19 08:06:04;;;;;;;3.65;2.30;;;;;;;26.39;48.71;98875.84;8508020;27;20042;-75
2022/06/19 08:10:07;;;;;;;5.15;2.25;;;;;;;26.38;47.53;98871.56;8500228;27;20043;-76
2022/06/19 08:14:08;;;;;;;12.60;2.90;;;;;;;26.39;48.13;98864.78;8523475;27;20050;-77
2022/06/19 08:18:09;;;;;;;7.10;2.38;;;;;;;26.64;47.86;98869.16;8503090;27;20130;-77
2022/06/19 08:22:10;;;;;;;8.68;2.10;;;;;;;26.83;46.32;98871.16;8518611;27;20404;-75
2022/06/19 08:26:12;;;;;;;8.13;2.42;;;;;;;26.98;46.96;98866.97;8523519;27;20508;-75
2022/06/19 08:30:16;;;;;;;11.23;2.22;;;;;;;27.17;46.98;98857.91;8470540;27;20043;-74
2022/06/19 08:34:16;;;;;;;9.60;2.40;;;;;;;27.29;45.86;98857.25;8479539;27;20047;-74
2022/06/19 08:38:24;;;;;;;7.03;2.60;;;;;;;27.36;44.78;98847.22;8478418;27;20059;-74
2022/06/19 08:42:40;;;;;;;9.38;2.33;;;;;;;27.51;45.36;98842.97;8474604;27;20119;-74
2022/06/19 08:46:48;;;;;;;11.15;2.50;;;;;;;27.72;44.29;98848.06;8490736;27;20505;-74
2022/06/19 08:51:09;;;;;;;10.40;2.38;;;;;;;27.91;43.65;98843.69;8478650;27;20055;-75
2022/06/19 08:56:02;;;;;;;9.45;2.20;;;;;;;28.07;43.91;98847.28;8452638;27;20048;-74
2022/06/19 09:00:13;;;;;;;7.60;2.53;;;;;;;28.21;43.78;98845.41;8402803;28;20041;-74
2022/06/19 09:09:03;;;;;;;5.03;2.05;;;;;;;28.44;43.03;98831.34;8407601;28;20433;-74
2022/06/19 09:13:03;;;;;;;;;;;;;;;28.65;41.76;98846.69;8394712;28;20553;-74
2022/06/19 09:17:25;;;;;;;10.50;2.63;;;;;;;28.72;40.35;98836.19;8403277;28;19920;-75
2022/06/19 09:21:51;;;;;;;8.32;2.03;;;;;;;28.68;40.34;98829.91;8389680;28;20040;-75
2022/06/19 09:26:12;;;;;;;5.93;2.05;;;;;;;28.69;40.04;98817.59;8395611;28;20044;-74
2022/06/19 09:30:26;;;;;;;12.10;2.50;;;;;;;28.88;39.95;98822.25;8319696;28;20048;-75
2022/06/19 09:34:50;;;;;;;10.10;2.92;;;;;;;29.10;39.21;98816.88;8339185;28;20052;-74
2022/06/19 09:38:56;;;;;;;8.13;1.98;;;;;;;29.18;39.13;98806.34;8408072;28;20590;-75
2022/06/19 09:43:08;;;;;;;9.98;1.90;;;;;;;29.27;38.50;98803.69;8407304;28;20053;-75
2022/06/19 09:47:22;;;;;;;6.40;1.90;;;;;;;29.39;37.84;98805.75;8395639;28;20145;-75
2022/06/19 09:51:41;;;;;;;16.75;2.67;;;;;;;29.53;37.53;98805.34;8382995;28;20482;-75
2022/06/19 09:55:42;;;;;;;;;;;;;;;29.69;37.22;98796.09;8391409;28;20102;-74
2022/06/19 09:59:53;;;;;;;9.95;2.40;;;;;;;29.76;35.80;98785.53;8408799;28;19924;-75
2022/06/19 10:04:09;;;;;;;14.13;2.75;;;;;;;29.85;35.50;98786.88;8350521;28;20147;-75
2022/06/19 10:08:15;;;;;;;16.52;2.35;;;;;;;29.82;35.55;98782.22;8399842;28;20545;-76
2022/06/19 10:12:29;;;;;;;8.77;1.77;;;;;;;29.86;35.18;98777.31;8410589;28;20049;-76
2022/06/19 10:16:45;;;;;;;17.13;2.28;;;;;;;29.98;35.66;98779.34;8404249;28;20044;-76
2022/06/19 10:20:58;;;;;;;9.00;2.08;;;;;;;30.19;35.80;98773.06;8413281;28;20040;-76
2022/06/19 10:25:20;;;;;;;5.25;1.70;;;;;;;30.15;33.79;98783.53;8414726;28;20048;-75
2022/06/19 10:29:35;;;;;;;13.18;1.80;;;;;;;30.29;35.14;98777.50;8422402;28;20071;-75
2022/06/19 10:33:56;;;;;;;11.88;1.88;;;;;;;30.28;34.02;98775.94;8464061;27;20059;-75
2022/06/19 10:38:20;;;;;;;10.57;2.28;;;;;;;30.36;34.65;98771.66;8471478;27;20515;-74
2022/06/19 10:42:44;;;;;;;6.97;1.77;;;;;;;30.45;34.37;98757.84;8477633;27;20043;-75
2022/06/19 10:46:49;;;;;;;11.10;1.85;;;;;;;30.42;33.92;98764.28;8478461;27;20047;-74
2022/06/19 10:51:03;;;;;;;10.05;1.85;;;;;;;30.49;34.05;98757.75;8461124;27;20044;-75
2022/06/19 10:55:48;;;;;;;9.30;2.05;;;;;;;30.58;34.38;98761.38;8392096;28;20052;-75
2022/06/19 10:59:49;;;;;;;10.43;2.10;;;;;;;30.73;33.98;98750.50;8405357;28;20052;-75
2022/06/19 11:04:11;;;;;;;7.13;1.98;;;;;;;30.85;34.18;98746.09;8377720;28;20060;-74
2022/06/19 11:08:13;;;;;;;6.43;2.53;;;;;;;30.87;34.23;98738.06;8398163;28;20090;-74
2022/06/19 11:12:31;;;;;;;7.07;1.70;;;;;;;31.04;35.09;98731.06;8411571;28;20039;-74
2022/06/19 11:16:34;;;;;;;7.70;2.00;;;;;;;31.15;34.71;98725.88;8404841;28;20063;-74
2022/06/19 11:20:35;;;;;;;8.20;2.38;;;;;;;31.15;35.22;98720.28;8386233;28;20358;-75
2022/06/19 11:24:39;;;;;;;12.52;1.75;;;;;;;31.29;33.88;98703.03;8394319;28;20055;-74
2022/06/19 11:28:44;;;;;;;11.60;2.00;;;;;;;31.50;34.30;98711.78;8485036;27;20428;-75
2022/06/19 11:32:50;;;;;;;6.22;2.30;;;;;;;31.48;34.11;98700.28;8512632;27;20035;-74
2022/06/19 11:36:51;;;;;;;10.05;2.08;;;;;;;31.59;33.69;98697.88;8502926;27;20122;-75
2022/06/19 11:40:52;;;;;;;10.63;1.80;;;;;;;31.70;34.30;98687.06;8496238;27;20126;-74
2022/06/19 11:45:14;;;;;;;12.05;2.17;;;;;;;31.78;33.95;98688.31;8481711;27;20046;-75
2022/06/19 11:49:27;;;;;;;11.43;2.28;;;;;;;31.92;33.37;98676.56;8513396;27;20133;-74
2022/06/19 11:53:32;;;;;;;9.35;2.10;;;;;;;31.88;33.20;98659.94;8463697;27;20550;-74
2022/06/19 11:57:33;;;;;;;10.73;2.30;;;;;;;32.13;34.52;98653.34;8509569;27;20050;-74
2022/06/19 12:01:44;;;;;;;9.73;2.10;;;;;;;32.18;32.80;98647.16;8520574;27;20082;-76
2022/06/19 12:06:41;;;;;;;6.55;2.03;;;;;;;32.36;33.83;98634.41;8459243;27;20050;-74
2022/06/19 12:10:42;;;;;;;9.77;2.25;;;;;;;32.44;33.14;98632.84;8377520;28;20565;-76
2022/06/19 12:14:52;;;;;;;10.05;1.88;;;;;;;32.32;32.81;98630.97;8369561;28;20041;-75
2022/06/19 12:18:53;;;;;;;7.50;2.13;;;;;;;32.36;31.32;98640.00;8360788;28;20546;-75
2022/06/19 12:23:16;;;;;;;17.95;2.58;;;;;;;32.35;31.39;98624.47;8363543;28;20037;-75
2022/06/19 12:27:19;;;;;;;12.23;2.22;;;;;;;32.44;29.84;98616.06;8327739;28;20558;-76
2022/06/19 12:31:24;;;;;;;12.38;2.15;;;;;;;32.41;30.20;98622.63;8366356;28;20522;-75
2022/06/19 12:35:37;;;;;;;11.77;3.15;;;;;;;32.48;29.95;98616.69;8360438;28;20581;-75
2022/06/19 12:39:42;;;;;;;13.38;2.17;;;;;;;32.57;30.53;98605.50;8339397;28;20055;-75
2022/06/19 12:43:46;;;;;;;12.65;2.47;;;;;;;32.45;29.06;98612.81;8380074;27;20053;-76
2022/06/19 12:48:01;;;;;;;21.63;2.47;;;;;;;32.22;29.54;98617.03;8487784;27;20044;-75
2022/06/19 12:52:31;;;;;;;11.20;2.80;;;;;;;32.18;28.49;98616.41;8469405;27;20131;-74
2022/06/19 12:56:46;;;;;;;17.77;1.92;;;;;;;32.07;28.88;98610.50;8403002;28;20063;-77
2022/06/19 13:00:59;;;;;;;17.60;2.55;;;;;;;32.22;28.52;98594.69;8385052;28;20049;-75
2022/06/19 13:05:39;;;;;;;15.35;2.55;;;;;;;32.19;28.68;98595.63;8384373;28;20431;-75
2022/06/19 13:09:54;;;;;;;15.88;2.60;;;;;;;32.28;28.43;98587.22;8282909;28;20188;-76
2022/06/19 13:14:39;;;;;;;15.30;2.15;;;;;;;32.65;28.57;98581.59;8291822;28;20061;-74
2022/06/19 13:18:53;;;;;;;11.43;2.17;;;;;;;32.94;27.87;98569.84;8269808;28;20062;-76
2022/06/19 13:23:18;;;;;;;23.17;2.55;;;;;;;33.15;28.30;98559.66;8285519;28;20085;-74
2022/06/19 13:27:37;;;;;;;24.55;2.45;;;;;;;33.22;27.21;98564.91;8285561;28;20058;-75
2022/06/19 13:31:52;;;;;;;18.65;2.95;;;;;;;33.33;27.24;98568.75;8320879;28;20044;-75
2022/06/19 13:36:00;;;;;;;17.33;2.67;;;;;;;33.48;26.29;98557.59;8424573;28;20052;-74
2022/06/19 13:40:03;;;;;;;16.05;2.83;;;;;;;34.56;24.75;98543.94;8423651;28;20067;-75
2022/06/19 13:44:16;;;;;;;12.18;2.40;;;;;;;35.48;22.98;98533.09;8407575;28;20051;-74
2022/06/19 13:48:32;;;;;;;16.67;2.45;;;;;;;36.48;23.22;98538.34;8443692;28;20464;-75
2022/06/19 13:52:45;;;;;;;13.75;2.00;;;;;;;37.59;23.14;98539.13;8446785;28;20051;-75
2022/06/19 13:57:10;;;;;;;13.82;2.33;;;;;;;37.99;22.62;98535.94;8436361;28;20044;-75
2022/06/19 14:01:23;;;;;;;13.57;2.58;;;;;;;38.57;21.65;98541.97;8367188;28;20048;-75
2022/06/19 14:05:30;;;;;;;13.27;2.72;;;;;;;39.17;20.59;98526.28;8364426;28;20052;-75
2022/06/19 14:09:36;;;;;;;17.33;2.80;;;;;;;39.49;20.57;98535.19;8374429;28;20049;-75
2022/06/19 14:13:49;;;;;;;15.70;2.70;;;;;;;39.11;20.41;98528.34;8379480;28;20064;-76
2022/06/19 14:18:03;;;;;;;9.98;2.70;;;;;;;40.04;19.84;98525.66;8374241;28;20103;-76
2022/06/19 14:22:12;;;;;;;19.35;2.58;;;;;;;40.29;20.11;98526.56;8375909;28;20048;-75
2022/06/19 14:26:45;;;;;;;13.82;2.33;;;;;;;40.22;19.51;98515.81;8378478;28;20144;-75
2022/06/19 14:30:52;;;;;;;12.40;2.53;;;;;;;41.00;19.25;98520.81;8338976;28;20048;-75
2022/06/19 14:35:11;;;;;;;14.60;2.57;;;;;;;40.75;19.38;98513.63;8284415;28;20517;-75
2022/06/19 14:39:15;;;;;;;19.92;2.47;;;;;;;41.31;20.01;98523.06;8372680;28;20132;-75
2022/06/19 14:43:20;;;;;;;14.48;2.33;;;;;;;41.44;18.99;98518.81;8381066;28;20094;-75
2022/06/19 14:47:27;;;;;;;15.20;2.35;;;;;;;41.58;18.74;98514.81;8383023;28;20055;-76
2022/06/19 14:51:31;;;;;;;14.80;2.50;;;;;;;41.36;19.12;98500.88;8385284;28;20040;-75
2022/06/19 14:56:00;;;;;;;13.68;2.85;;;;;;;41.53;19.01;98498.63;8378715;28;20068;-76
2022/06/19 15:00:37;;;;;;;15.85;3.10;;;;;;;42.41;18.67;98485.25;8378788;28;20049;-77
2022/06/19 15:04:38;;;;;;;13.82;2.20;;;;;;;41.84;18.38;98478.09;8386879;28;20485;-76
2022/06/19 15:08:41;;;;;;;9.48;2.22;;;;;;;40.56;20.08;98475.94;8446384;28;20054;-76
2022/06/19 15:12:43;;;;;;;9.18;2.05;;;;;;;40.39;20.45;98462.72;8439040;28;20050;-75
2022/06/19 15:17:04;;;;;;;13.38;2.45;;;;;;;40.09;19.87;98457.00;8452627;28;20154;-75
2022/06/19 15:21:23;;;;;;;14.15;2.33;;;;;;;39.55;20.74;98445.50;8357868;28;20044;-76
2022/06/19 15:25:25;;;;;;;21.15;2.55;;;;;;;40.21;20.55;98446.41;8402946;28;20045;-77
2022/06/19 15:29:39;;;;;;;12.25;2.35;;;;;;;39.98;21.04;98445.75;8410184;28;20599;-77
2022/06/19 15:33:45;;;;;;;16.40;2.17;;;;;;;40.62;20.20;98445.50;8383543;28;20052;-77
2022/06/19 15:37:51;;;;;;;15.27;2.20;;;;;;;41.23;20.00;98430.72;8406077;28;20521;-75
2022/06/19 15:42:02;;;;;;;11.68;2.42;;;;;;;41.78;19.28;98443.38;8370470;28;20044;-77
2022/06/19 15:46:09;;;;;;;12.52;2.70;;;;;;;40.62;19.99;98434.19;8406778;28;20040;-75
2022/06/19 15:50:18;;;;;;;18.97;2.73;;;;;;;39.31;21.10;98434.03;8409651;28;20064;-75
2022/06/19 15:54:20;;;;;;;14.82;2.30;;;;;;;38.20;23.25;98431.41;8445279;28;20044;-75
2022/06/19 15:58:41;;;;;;;16.63;2.33;;;;;;;37.68;23.63;98423.41;8437177;28;20056;-75
2022/06/19 16:02:46;;;;;;;14.82;2.45;;;;;;;36.44;24.85;98425.28;8432966;28;20542;-75
2022/06/19 16:07:14;;;;;;;7.28;2.10;;;;;;;35.51;25.78;98408.56;8428454;28;20039;-76
2022/06/19 16:11:40;;;;;;;17.52;2.53;;;;;;;35.15;26.22;98420.38;8376567;28;20048;-75
2022/06/19 16:15:43;;;;;;;9.88;2.30;;;;;;;35.00;27.14;98430.91;8393731;28;20123;-75
2022/06/19 16:19:45;;;;;;;5.95;2.00;;;;;;;35.14;26.26;98432.88;8406182;28;20063;-74
2022/06/19 16:23:49;;;;;;;9.82;2.35;;;;;;;34.89;26.29;98425.16;8444779;28;20048;-77
2022/06/19 16:27:51;;;;;;;13.93;2.83;;;;;;;34.88;26.59;98417.97;8452596;27;20045;-74
2022/06/19 16:31:55;;;;;;;13.05;2.67;;;;;;;35.35;26.10;98433.66;8497960;27;20112;-77
2022/06/19 16:44:50;;;;;;;12.05;2.65;;;;;;;34.68;26.96;98419.50;8521923;27;20062;-75
2022/06/19 16:48:51;;;;;;;13.23;2.33;;;;;;;35.68;25.93;98433.28;8469604;27;20039;-74
2022/06/19 16:52:55;;;;;;;5.93;2.13;;;;;;;36.39;25.07;98436.00;8522174;27;20039;-73
2022/06/19 16:57:06;;;;;;;8.20;2.15;;;;;;;35.46;25.27;98428.94;8502772;27;20049;-73
2022/06/19 17:01:18;;;;;;;20.15;2.45;;;;;;;34.49;26.17;98425.78;8453922;27;20408;-73
2022/06/19 17:05:20;;;;;;;14.18;2.50;;;;;;;33.22;28.03;98427.81;8513996;27;20050;-74
2022/06/19 17:09:30;;;;;;;15.48;2.30;;;;;;;32.58;28.76;98425.34;8518973;27;20528;-73
2022/06/19 17:13:31;;;;;;;7.82;2.17;;;;;;;32.19;29.30;98433.59;8492688;27;20045;-75
2022/06/19 17:17:44;;;;;;;11.63;1.90;;;;;;;31.59;30.31;98425.16;8515487;27;20063;-73
2022/06/19 17:21:55;;;;;;;7.20;1.90;;;;;;;31.35;30.71;98422.19;8503077;27;20100;-73
2022/06/19 17:25:59;;;;;;;9.02;2.30;;;;;;;31.30;31.19;98414.41;8527697;27;20103;-74
2022/06/19 17:30:03;;;;;;;10.85;2.28;;;;;;;31.01;31.56;98408.50;8493773;27;20051;-75
2022/06/19 17:34:24;;;;;;;9.65;2.15;;;;;;;30.82;31.67;98423.66;8514959;27;20047;-73
2022/06/19 17:38:31;;;;;;;11.77;1.90;;;;;;;30.59;32.05;98411.81;8487374;27;20043;-75
2022/06/19 17:42:36;;;;;;;9.93;2.03;;;;;;;30.45;32.29;98412.38;8508156;27;20130;-73
2022/06/19 17:46:38;;;;;;;10.18;2.72;;;;;;;30.32;32.81;98397.75;8486641;27;20458;-74
2022/06/19 17:50:43;;;;;;;11.50;2.45;;;;;;;30.04;33.83;98407.22;8527813;27;20073;-75
2022/06/19 17:54:47;;;;;;;9.65;2.28;;;;;;;29.82;34.02;98398.13;8485566;27;20072;-74
2022/06/19 17:59:19;;;;;;;14.23;2.60;;;;;;;29.72;33.87;98406.38;8525164;27;20092;-75
2022/06/19 18:03:23;;;;;;;9.10;2.30;;;;;;;29.56;34.39;98403.78;8513523;27;20058;-74
2022/06/19 18:07:34;;;;;;;9.50;2.10;;;;;;;29.50;34.61;98400.06;8513441;27;20077;-73
2022/06/19 18:11:39;;;;;;;14.27;2.60;;;;;;;29.47;34.64;98389.84;8515172;27;20039;-76
2022/06/19 18:20:01;;;;;;;8.13;2.20;;;;;;;28.98;35.34;98381.97;8502857;27;20449;-74
2022/06/19 18:24:05;;;;;;;9.43;2.15;;;;;;;28.86;35.92;98374.47;8466209;27;20421;-74
2022/06/19 18:28:26;;;;;;;14.23;2.40;;;;;;;28.82;35.70;98379.34;8460942;27;20393;-72
2022/06/19 18:32:33;;;;;;;9.45;2.40;;;;;;;28.62;36.25;98369.72;8437529;28;20110;-73
2022/06/19 18:36:38;;;;;;;11.27;2.72;;;;;;;28.55;36.33;98377.03;8448510;28;20044;-74
2022/06/19 18:40:42;;;;;;;6.22;2.28;;;;;;;28.27;37.35;98368.88;8446222;28;20100;-73
2022/06/19 18:44:44;;;;;;;8.23;2.38;;;;;;;28.02;37.91;98377.94;8439667;28;20104;-74
2022/06/19 18:48:45;;;;;;;14.32;2.50;;;;;;;27.86;38.56;98376.03;8454962;28;20127;-74
2022/06/19 18:52:46;;;;;;;6.18;2.50;;;;;;;27.69;39.11;98375.34;8421181;28;20051;-74
2022/06/19 18:56:48;;;;;;;18.52;2.47;;;;;;;27.51;39.82;98377.06;8431652;28;20284;-74
2022/06/19 19:00:49;;;;;;;11.50;2.40;;;;;;;27.45;40.02;98378.78;8410653;28;20122;-73
2022/06/19 19:04:52;;;;;;;9.35;2.40;;;;;;;27.33;40.11;98385.09;8466572;27;20039;-74
2022/06/19 19:08:54;;;;;;;9.95;2.55;;;;;;;27.17;40.63;98386.69;8499901;27;20043;-75
2022/06/19 19:12:57;;;;;;;7.93;2.28;;;;;;;27.07;41.08;98387.72;8519487;27;20039;-74
2022/06/19 19:16:58;;;;;;;14.93;2.50;;;;;;;27.00;41.16;98387.94;8470505;27;20057;-74
2022/06/19 19:20:59;;;;;;;8.77;2.33;;;;;;;26.94;41.39;98395.22;8496165;27;20043;-74
2022/06/19 19:25:00;;;;;;;6.00;2.45;;;;;;;26.74;42.29;98402.81;8521327;27;20089;-74
2022/06/19 19:29:08;;;;;;;8.02;2.78;;;;;;;26.58;42.69;98405.59;8506783;27;20053;-73
2022/06/19 19:33:13;;;;;;;22.48;3.47;;;;;;;26.51;42.83;98405.75;8470025;27;20118;-74
2022/06/19 19:37:17;;;;;;;8.93;3.00;;;;;;;26.42;42.87;98406.34;8509810;27;20042;-74